Forside
METAR-TAF:

METAR-TAF

Lufthavne :

Truckee-Tahoe Airport

Truckee, Californien, USA

Breddekreds: 39-19N, længdekreds: 120-08W, højde: 1798 m

Aktuelle vejr

Denne rapport blev lavet for 39 minutter siden, kl. 06:55 UTC
Vind 3 kt fra sydøst
Temperatur -2°C
Fugtighed 69%
Tryk 1020 hPa
Sigt: 16.1 km
Spredte skyer i en højde af 11000 ft

METAR: KTRK 220655Z AUTO 14003KT 10SM SCT110 M02/M07 A3013 RMK AO2

Tid: 23:34 (07:34 UTC)

Vejrudsigter

Denne rapport blev lavet for 2 timer og 6 minutter siden, kl. 05:28 UTC
Foreløbig gælder fra 22 på 06 UTC til 23 på 06 UTC
Vind 5 kt fra varierende retninger
Sigt: 10 km
Spredte skyer i en højde af 9000 ft
Brudte skyer i en højde af 12000 ft
Fra 22 på 2100 UTC
Vind 8 kt fra nordnordvest
Sigt: 10 km
Spredte skyer i en højde af 7000 ft
Fra 23 på 0300 UTC
Vind 3 kt fra varierende retninger
Sigt: 10 km
Nogle få skyer i en højde af 20000 ft

TAF: KTRK 220528Z 2206/2306 VRB05KT P6SM SCT090 BKN120 FM222100 34008KT P6SM SCT070 FM230300 VRB03KT P6SM FEW200

Vejrobservationer og prognoser fra mere end 4000 lufthavne (METAR og TAF).

De gule og røde prikker repræsenterer de meteorologiske stationer.

Flyt musen over at se navnet på stationen.

Så klik over at se vejr observationer og prognoser.

At skifte det kort: Klik på de grønne knapper med et sort kors for at zoome ind; på den grønne knap med en bindestreg for at zoome ud; eller på de grønne pile for tilstødende kort.


METAR-TAF: